Clipper 3 — ZMT3984 — position and weather

sailwx.info

Track history (hours):
 
Tides and Currents Weather Stations Pressure Air Temp Water Temp Dewpoint Dewpoint Depression Visibility Wind Speed Wind Dir Waves Ship Positions

Clipper 3

Last reported at 2014-Dec-20 07:12 UTC. Time now 2014-Dec-21 12:08 UTC.
Position S 36°53' E 174°60'.

Length 14 m; draft 1 m.

Type: High speed craft. MMSI: 512000741.

Date/timePositionNaut miles runAvg speedWind from/ knotsBaromVisibWave heightAir tempDewpointWater temp
2014-Dec-20 07:12S 36°53' E 174°60'0 0.0
2014-Dec-20 03:06S 36°53' E 174°60'0 0.0
2014-Dec-19 20:23S 36°53' E 174°60'5 0.3
2014-Dec-19 05:19S 36°50' E 174°54'6 3.7
2014-Dec-19 03:33S 36°51' E 174°46'7 2.9
2014-Dec-19 01:18S 36°51' E 174°54'0 0.1
2014-Dec-18 23:17S 36°51' E 174°54'0 0.0
2014-Dec-18 20:13S 36°51' E 174°54'6 3.9
2014-Dec-18 18:33S 36°51' E 174°46'6 0.5
2014-Dec-18 05:18S 36°51' E 174°54'6 3.6
2014-Dec-18 03:33S 36°51' E 174°46'6 1.4
2014-Dec-17 23:15S 36°51' E 174°53'0 0.0
2014-Dec-17 20:06S 36°51' E 174°54'3 6.3
2014-Dec-17 19:33S 36°50' E 174°49'3 2.6
2014-Dec-17 18:33S 36°50' E 174°46'6 0.5
2014-Dec-17 05:17S 36°51' E 174°54'6 3.7
2014-Dec-17 03:33S 36°51' E 174°46'6 2.6
2014-Dec-17 01:16S 36°51' E 174°54'1 0.3
2014-Dec-16 23:22S 36°50' E 174°54'0 0.1
2014-Dec-16 20:12S 36°51' E 174°54'2 3.4
2014-Dec-16 19:33S 36°50' E 174°51'4 4.1
2014-Dec-16 18:33S 36°50' E 174°46'6 0.4
2014-Dec-16 05:22S 36°51' E 174°53'6 3.3
2014-Dec-16 03:32S 36°50' E 174°46'3 3.4
2014-Dec-16 02:33S 36°50' E 174°50'3 0.9
2014-Dec-15 23:19S 36°51' E 174°54'0 0.0
2014-Dec-15 20:10S 36°51' E 174°54'2 3.3
2014-Dec-15 19:33S 36°50' E 174°51'4 4.2
2014-Dec-15 18:31S 36°51' E 174°46'0 0.0
2014-Dec-15 05:33S 36°51' E 174°46'7 6.1
2014-Dec-15 04:29S 36°51' E 174°54'0 0.0
2014-Dec-14 20:06S 36°51' E 174°54'3 5.9
2014-Dec-14 19:34S 36°50' E 174°50'3 3.0
2014-Dec-14 18:33S 36°50' E 174°46'11 0.8
2014-Dec-14 04:33S 36°47' E 174°59'1 0.6
2014-Dec-14 03:33S 36°47' E 174°59'0 0.0
2014-Dec-14 02:32S 36°47' E 174°59'0 0.0
2014-Dec-14 01:33S 36°47' E 174°60'0 0.0
2014-Dec-14 00:33S 36°47' E 174°60'6 6.3
2014-Dec-13 23:33S 36°51' E 174°53'6 6.3
2014-Dec-13 22:33S 36°47' E 174°60'1111.5
2014-Dec-13 21:34S 36°51' E 174°46'1110.5
2014-Dec-13 20:33S 36°49' E 174°59'2 0.1
2014-Dec-13 04:33S 36°47' E 174°59'1111.0
2014-Dec-13 03:33S 36°51' E 174°46'0 0.0
2014-Dec-13 02:33S 36°51' E 174°46'1111.0
2014-Dec-13 01:33S 36°47' E 174°59'1111.1
2014-Dec-13 00:33S 36°51' E 174°46'7 7.4
2014-Dec-12 23:34S 36°48' E 174°55'4 3.7
2014-Dec-12 22:33S 36°47' E 174°59'1111.0
2014-Dec-12 21:33S 36°51' E 174°46'1110.7
2014-Dec-12 20:34S 36°47' E 174°59'5 0.3
2014-Dec-12 05:17S 36°51' E 174°54'6 3.8
2014-Dec-12 03:33S 36°51' E 174°46'6 2.8
2014-Dec-12 01:16S 36°51' E 174°54'1 1.1
2014-Dec-12 00:33S 36°51' E 174°55'1 0.7
2014-Dec-11 23:16S 36°51' E 174°54'0 0.1
2014-Dec-11 20:05S 36°51' E 174°53'3 6.1
2014-Dec-11 19:34S 36°50' E 174°49'3 2.6
2014-Dec-11 18:34S 36°50' E 174°46'6 0.4
2014-Dec-11 05:15S 36°51' E 174°53'6 3.5
2014-Dec-11 03:34S 36°51' E 174°46'7 2.9
2014-Dec-11 01:16S 36°51' E 174°54'0 0.0
2014-Dec-10 23:16S 36°51' E 174°54'6 3.8
2014-Dec-10 21:33S 36°51' E 174°46'6 3.8
2014-Dec-10 20:06S 36°50' E 174°53'  
Track history (hours):
 
Tides and Currents Weather Stations Pressure Air Temp Water Temp Dewpoint Dewpoint Depression Visibility Wind Speed Wind Dir Waves Ship Positions

Clipper 3

Last reported at 2014-Dec-20 07:12 UTC. Time now 2014-Dec-21 12:08 UTC.
Position S 36°53' E 174°60'.

Length 14 m; draft 1 m.

Type: High speed craft. MMSI: 512000741.

Date/timePositionNaut miles runAvg speedWind from/ knotsBaromVisibWave heightAir tempDewpointWater temp
2014-Dec-20 07:12S 36°53' E 174°60'0 0.0
2014-Dec-20 03:06S 36°53' E 174°60'0 0.0
2014-Dec-19 20:23S 36°53' E 174°60'5 0.3
2014-Dec-19 05:19S 36°50' E 174°54'6 3.7
2014-Dec-19 03:33S 36°51' E 174°46'7 2.9
2014-Dec-19 01:18S 36°51' E 174°54'0 0.1
2014-Dec-18 23:17S 36°51' E 174°54'0 0.0
2014-Dec-18 20:13S 36°51' E 174°54'6 3.9
2014-Dec-18 18:33S 36°51' E 174°46'6 0.5
2014-Dec-18 05:18S 36°51' E 174°54'6 3.6
2014-Dec-18 03:33S 36°51' E 174°46'6 1.4
2014-Dec-17 23:15S 36°51' E 174°53'0 0.0
2014-Dec-17 20:06S 36°51' E 174°54'3 6.3
2014-Dec-17 19:33S 36°50' E 174°49'3 2.6
2014-Dec-17 18:33S 36°50' E 174°46'6 0.5
2014-Dec-17 05:17S 36°51' E 174°54'6 3.7
2014-Dec-17 03:33S 36°51' E 174°46'6 2.6
2014-Dec-17 01:16S 36°51' E 174°54'1 0.3
2014-Dec-16 23:22S 36°50' E 174°54'0 0.1
2014-Dec-16 20:12S 36°51' E 174°54'2 3.4
2014-Dec-16 19:33S 36°50' E 174°51'4 4.1
2014-Dec-16 18:33S 36°50' E 174°46'6 0.4
2014-Dec-16 05:22S 36°51' E 174°53'6 3.3
2014-Dec-16 03:32S 36°50' E 174°46'3 3.4
2014-Dec-16 02:33S 36°50' E 174°50'3 0.9
2014-Dec-15 23:19S 36°51' E 174°54'0 0.0
2014-Dec-15 20:10S 36°51' E 174°54'2 3.3
2014-Dec-15 19:33S 36°50' E 174°51'4 4.2
2014-Dec-15 18:31S 36°51' E 174°46'0 0.0
2014-Dec-15 05:33S 36°51' E 174°46'7 6.1
2014-Dec-15 04:29S 36°51' E 174°54'0 0.0
2014-Dec-14 20:06S 36°51' E 174°54'3 5.9
2014-Dec-14 19:34S 36°50' E 174°50'3 3.0
2014-Dec-14 18:33S 36°50' E 174°46'11 0.8
2014-Dec-14 04:33S 36°47' E 174°59'1 0.6
2014-Dec-14 03:33S 36°47' E 174°59'0 0.0
2014-Dec-14 02:32S 36°47' E 174°59'0 0.0
2014-Dec-14 01:33S 36°47' E 174°60'0 0.0
2014-Dec-14 00:33S 36°47' E 174°60'6 6.3
2014-Dec-13 23:33S 36°51' E 174°53'6 6.3
2014-Dec-13 22:33S 36°47' E 174°60'1111.5
2014-Dec-13 21:34S 36°51' E 174°46'1110.5
2014-Dec-13 20:33S 36°49' E 174°59'2 0.1
2014-Dec-13 04:33S 36°47' E 174°59'1111.0
2014-Dec-13 03:33S 36°51' E 174°46'0 0.0
2014-Dec-13 02:33S 36°51' E 174°46'1111.0
2014-Dec-13 01:33S 36°47' E 174°59'1111.1
2014-Dec-13 00:33S 36°51' E 174°46'7 7.4
2014-Dec-12 23:34S 36°48' E 174°55'4 3.7
2014-Dec-12 22:33S 36°47' E 174°59'1111.0
2014-Dec-12 21:33S 36°51' E 174°46'1110.7
2014-Dec-12 20:34S 36°47' E 174°59'5 0.3
2014-Dec-12 05:17S 36°51' E 174°54'6 3.8
2014-Dec-12 03:33S 36°51' E 174°46'6 2.8
2014-Dec-12 01:16S 36°51' E 174°54'1 1.1
2014-Dec-12 00:33S 36°51' E 174°55'1 0.7
2014-Dec-11 23:16S 36°51' E 174°54'0 0.1
2014-Dec-11 20:05S 36°51' E 174°53'3 6.1
2014-Dec-11 19:34S 36°50' E 174°49'3 2.6
2014-Dec-11 18:34S 36°50' E 174°46'6 0.4
2014-Dec-11 05:15S 36°51' E 174°53'6 3.5
2014-Dec-11 03:34S 36°51' E 174°46'7 2.9
2014-Dec-11 01:16S 36°51' E 174°54'0 0.0
2014-Dec-10 23:16S 36°51' E 174°54'6 3.8
2014-Dec-10 21:33S 36°51' E 174°46'6 3.8
2014-Dec-10 20:06S 36°50' E 174°53'  

Dump ship's entire track history